createdAt,value
2018-08-25T00:02:21.013Z,44.90
2018-08-25T00:04:49.577Z,46.63
2018-08-25T00:07:18.099Z,44.30
2018-08-25T00:09:46.657Z,43.10
2018-08-25T00:12:15.177Z,41.10
2018-08-25T00:14:43.737Z,42.93
2018-08-25T00:17:12.301Z,39.80
2018-08-25T00:19:40.861Z,40.73
2018-08-25T00:22:09.417Z,41.17
2018-08-25T00:24:37.937Z,39.07
2018-08-25T00:27:06.814Z,38.50
2018-08-25T00:29:35.324Z,37.07
2018-08-25T00:32:03.894Z,36.13
2018-08-25T00:34:32.405Z,35.83
2018-08-25T00:37:00.969Z,36.43
2018-08-25T00:39:29.457Z,37.37
2018-08-25T00:41:57.996Z,41.47
2018-08-25T00:44:26.629Z,40.47
2018-08-25T00:46:55.181Z,43.73
2018-08-25T00:49:23.763Z,43.40
2018-08-25T00:51:52.410Z,45.67
2018-08-25T00:54:20.958Z,44.77
2018-08-25T00:56:49.470Z,50.17
2018-08-25T00:59:18.031Z,47.47
2018-08-25T01:01:46.641Z,52.33
2018-08-25T01:04:15.201Z,50.70
2018-08-25T01:06:43.772Z,49.77
2018-08-25T01:09:12.333Z,50.80
2018-08-25T01:11:40.841Z,48.33
2018-08-25T01:14:09.373Z,44.53
2018-08-25T01:16:37.926Z,44.47
2018-08-25T01:19:07.598Z,46.70
2018-08-25T01:21:36.167Z,42.17
2018-08-25T01:24:04.675Z,47.67
2018-08-25T01:26:33.261Z,49.03
2018-08-25T01:29:01.777Z,59.77
2018-08-25T01:31:30.393Z,63.20
2018-08-25T01:34:00.484Z,59.07
2018-08-25T01:36:29.054Z,61.20
2018-08-25T01:38:57.604Z,58.43
2018-08-25T01:41:26.172Z,56.30
2018-08-25T01:43:54.718Z,53.53
2018-08-25T01:46:23.205Z,51.70
2018-08-25T01:48:51.768Z,56.50
2018-08-25T01:51:20.325Z,52.93
2018-08-25T01:53:48.821Z,48.37
2018-08-25T01:56:17.433Z,46.77
2018-08-25T01:58:45.995Z,45.23
2018-08-25T02:01:14.549Z,42.60
2018-08-25T02:03:43.066Z,42.97
2018-08-25T02:06:11.622Z,44.57
2018-08-25T02:08:40.120Z,40.23
2018-08-25T02:11:08.670Z,42.07
2018-08-25T02:13:37.216Z,45.17
2018-08-25T02:16:06.317Z,40.53
2018-08-25T02:18:34.898Z,43.80
2018-08-25T02:21:03.442Z,56.60
2018-08-25T02:23:31.950Z,70.13
2018-08-25T02:26:00.510Z,59.47
2018-08-25T02:28:29.025Z,65.87
2018-08-25T02:30:57.567Z,66.47
2018-08-25T02:33:26.049Z,63.33
2018-08-25T02:35:54.580Z,68.00
2018-08-25T02:38:23.097Z,71.23
2018-08-25T02:40:51.631Z,82.20
2018-08-25T02:43:20.148Z,84.63
2018-08-25T02:45:48.700Z,88.13
2018-08-25T02:48:17.213Z,87.27
2018-08-25T02:50:45.729Z,90.10
2018-08-25T02:53:14.277Z,106.23
2018-08-25T02:55:42.822Z,99.43
2018-08-25T02:58:11.533Z,101.87
2018-08-25T03:00:40.058Z,99.20
2018-08-25T03:03:08.549Z,101.90
2018-08-25T03:05:37.131Z,103.27
2018-08-25T03:08:05.880Z,102.27
2018-08-25T03:10:34.377Z,114.60
2018-08-25T03:13:02.924Z,106.67
2018-08-25T03:15:31.466Z,105.53
2018-08-25T03:18:00.028Z,109.80
2018-08-25T03:20:28.535Z,98.60
2018-08-25T03:22:57.065Z,102.63
2018-08-25T03:25:25.559Z,107.57
2018-08-25T03:27:54.130Z,106.90
2018-08-25T03:30:22.673Z,112.27
2018-08-25T03:32:51.206Z,102.53
2018-08-25T03:35:19.745Z,108.00
2018-08-25T03:37:48.298Z,105.17
2018-08-25T03:40:16.958Z,99.87
2018-08-25T03:42:45.467Z,98.40
2018-08-25T03:45:14.021Z,100.67
2018-08-25T03:47:42.500Z,88.67
2018-08-25T03:50:11.030Z,80.13
2018-08-25T03:52:39.766Z,62.37
2018-08-25T03:55:08.325Z,56.27
2018-08-25T03:57:36.856Z,49.33
2018-08-25T04:00:06.473Z,46.50
2018-08-25T04:02:35.032Z,40.53
2018-08-25T04:05:03.533Z,44.40
2018-08-25T04:07:32.057Z,49.47
2018-08-25T04:10:00.557Z,51.47
2018-08-25T04:12:29.103Z,47.63
2018-08-25T04:14:57.722Z,53.17
2018-08-25T04:17:26.241Z,64.07
2018-08-25T04:19:54.764Z,75.80
2018-08-25T04:22:23.377Z,85.20
2018-08-25T04:24:51.876Z,97.30
2018-08-25T04:27:20.371Z,108.73
2018-08-25T04:29:48.916Z,116.83
2018-08-25T04:32:17.485Z,114.83
2018-08-25T04:34:46.015Z,131.57
2018-08-25T04:37:14.537Z,131.03
2018-08-25T04:39:43.099Z,125.60
2018-08-25T04:42:11.610Z,91.20
2018-08-25T04:44:40.145Z,79.40
2018-08-25T04:47:08.638Z,59.33
2018-08-25T04:49:37.188Z,53.03
2018-08-25T04:52:05.887Z,63.13
2018-08-25T04:54:34.436Z,87.10
2018-08-25T04:57:03.048Z,90.67
2018-08-25T04:59:31.597Z,87.93
2018-08-25T05:02:00.216Z,105.50
2018-08-25T05:04:28.709Z,109.50
2018-08-25T05:06:57.219Z,77.50
2018-08-25T05:09:26.521Z,70.10
2018-08-25T05:11:55.066Z,61.23
2018-08-25T05:14:23.772Z,59.43
2018-08-25T05:16:52.327Z,58.40
2018-08-25T05:19:20.839Z,57.43
2018-08-25T05:21:49.495Z,78.77
2018-08-25T05:24:17.994Z,104.20
2018-08-25T05:26:46.593Z,145.30
2018-08-25T05:29:15.101Z,196.13
2018-08-25T05:31:43.665Z,182.67
2018-08-25T05:34:12.234Z,175.03
2018-08-25T05:36:40.825Z,170.30
2018-08-25T05:39:10.457Z,146.07
2018-08-25T05:41:39.192Z,130.73
2018-08-25T05:44:07.791Z,141.47
2018-08-25T05:46:36.296Z,124.20
2018-08-25T05:49:04.860Z,122.30
2018-08-25T05:51:33.357Z,111.80
2018-08-25T05:54:01.915Z,138.53
2018-08-25T05:56:30.441Z,138.27
2018-08-25T05:58:59.021Z,134.73
2018-08-25T06:01:27.673Z,146.67
2018-08-25T06:03:56.225Z,177.97
2018-08-25T06:06:24.771Z,202.83
2018-08-25T06:08:53.300Z,225.23
2018-08-25T06:11:21.812Z,222.37
2018-08-25T06:13:50.377Z,230.00
2018-08-25T06:16:18.914Z,181.77
2018-08-25T06:18:47.461Z,136.73
2018-08-25T06:21:16.037Z,128.13
2018-08-25T06:23:44.610Z,172.67
2018-08-25T06:26:13.165Z,203.90
2018-08-25T06:28:41.666Z,239.93
2018-08-25T06:31:10.254Z,232.43
2018-08-25T06:33:39.077Z,283.10
2018-08-25T06:36:07.725Z,356.17
2018-08-25T06:38:36.221Z,351.90
2018-08-25T06:41:04.769Z,343.50
2018-08-25T06:43:33.380Z,364.33
2018-08-25T06:46:08.881Z,274.87
2018-08-25T06:48:39.061Z,282.43
2018-08-25T06:51:07.646Z,225.57
2018-08-25T06:53:36.745Z,234.53
2018-08-25T06:56:05.408Z,244.30
2018-08-25T06:58:33.945Z,247.20
2018-08-25T07:01:02.757Z,275.33
2018-08-25T07:03:32.647Z,370.07
2018-08-25T07:06:09.033Z,359.00
2018-08-25T07:08:37.612Z,315.00
2018-08-25T07:11:06.302Z,336.40
2018-08-25T07:13:34.887Z,293.13
2018-08-25T07:16:03.430Z,263.13
2018-08-25T07:18:31.986Z,235.23
2018-08-25T07:21:00.486Z,264.33
2018-08-25T07:23:29.014Z,283.17
2018-08-25T07:25:57.664Z,251.53
2018-08-25T07:28:26.127Z,287.37
2018-08-25T07:30:54.668Z,267.43
2018-08-25T07:33:23.182Z,285.13
2018-08-25T07:35:51.751Z,284.70
2018-08-25T07:38:20.279Z,276.77
2018-08-25T07:40:48.880Z,282.77
2018-08-25T07:43:17.456Z,273.03
2018-08-25T07:45:45.996Z,261.20
2018-08-25T07:48:14.518Z,273.57
2018-08-25T07:50:43.058Z,262.73
2018-08-25T07:53:11.622Z,274.20
2018-08-25T07:55:40.131Z,250.30
2018-08-25T07:58:08.701Z,258.40
2018-08-25T08:00:37.291Z,251.23
2018-08-25T08:03:12.392Z,277.47
2018-08-25T08:05:41.001Z,270.30
2018-08-25T08:08:09.514Z,275.70
2018-08-25T08:10:38.069Z,275.10
2018-08-25T08:13:06.628Z,280.13
2018-08-25T08:15:35.204Z,290.83
2018-08-25T08:18:03.804Z,297.43
2018-08-25T08:20:36.977Z,315.23
2018-08-25T08:23:05.977Z,302.33
2018-08-25T08:25:34.778Z,297.60
2018-08-25T08:28:03.318Z,298.80
2018-08-25T08:30:31.874Z,313.10
2018-08-25T08:33:00.446Z,303.57
2018-08-25T08:35:28.998Z,300.13
2018-08-25T08:37:57.752Z,317.73
2018-08-25T08:40:26.317Z,333.77
2018-08-25T08:42:54.913Z,315.73
2018-08-25T08:45:23.495Z,327.43
2018-08-25T08:47:52.066Z,320.60
2018-08-25T08:50:20.650Z,319.73
2018-08-25T08:52:49.231Z,299.03
2018-08-25T08:55:17.742Z,296.17
2018-08-25T08:57:46.281Z,304.00
2018-08-25T09:00:14.781Z,314.97
2018-08-25T09:02:43.319Z,324.67
2018-08-25T09:05:11.840Z,314.40
2018-08-25T09:07:40.409Z,232.97
2018-08-25T09:10:08.930Z,221.27
2018-08-25T09:12:37.633Z,245.03
2018-08-25T09:15:06.220Z,378.37
2018-08-25T09:17:34.787Z,298.67
2018-08-25T09:20:03.395Z,241.03
2018-08-25T09:22:31.928Z,204.93
2018-08-25T09:25:00.478Z,131.67
2018-08-25T09:27:29.132Z,114.40
2018-08-25T09:29:57.631Z,113.23
2018-08-25T09:32:26.218Z,115.37
2018-08-25T09:34:54.777Z,130.37
2018-08-25T09:37:23.356Z,122.53
2018-08-25T09:39:51.886Z,234.90
2018-08-25T09:42:20.436Z,243.73
2018-08-25T09:44:48.988Z,216.50
2018-08-25T09:47:17.609Z,176.10
2018-08-25T09:49:46.189Z,208.43
2018-08-25T09:52:14.699Z,210.77
2018-08-25T09:54:43.281Z,230.53
2018-08-25T09:57:11.828Z,233.37
2018-08-25T09:59:40.461Z,221.63
2018-08-25T10:02:09.017Z,223.80
2018-08-25T10:04:37.582Z,203.43
2018-08-25T10:07:06.317Z,194.83
2018-08-25T10:09:34.866Z,167.13
2018-08-25T10:12:03.486Z,136.70
2018-08-25T10:14:32.107Z,143.47
2018-08-25T10:17:00.651Z,142.30
2018-08-25T10:19:29.413Z,136.67
2018-08-25T10:21:57.936Z,144.27
2018-08-25T10:24:26.487Z,144.03
2018-08-25T10:26:55.085Z,147.37
2018-08-25T10:29:23.584Z,142.27
2018-08-25T10:31:52.141Z,145.40
2018-08-25T10:34:20.695Z,130.47
2018-08-25T10:36:49.312Z,139.23
2018-08-25T10:39:18.862Z,155.50
2018-08-25T10:41:47.684Z,146.40
2018-08-25T10:44:16.281Z,116.40
2018-08-25T10:46:45.014Z,118.57
2018-08-25T10:49:13.658Z,89.80
2018-08-25T10:51:42.194Z,96.50
2018-08-25T10:54:10.785Z,99.20
2018-08-25T10:56:39.305Z,66.37
2018-08-25T10:59:07.830Z,56.80
2018-08-25T11:01:37.290Z,58.27
2018-08-25T11:04:06.928Z,63.20
2018-08-25T11:06:40.358Z,82.40
2018-08-25T11:09:15.573Z,93.07
2018-08-25T11:11:48.684Z,137.40
2018-08-25T11:14:17.240Z,55.57
2018-08-25T11:16:50.985Z,99.77
2018-08-25T11:19:24.629Z,116.07
2018-08-25T11:22:00.705Z,112.03
2018-08-25T11:27:22.303Z,91.53
2018-08-25T11:29:58.007Z,155.70
2018-08-25T11:32:33.891Z,224.47
2018-08-25T11:35:06.510Z,89.93
2018-08-25T11:37:42.613Z,48.70
2018-08-25T11:40:26.824Z,55.87
2018-08-25T11:45:48.195Z,52.80
2018-08-25T11:48:23.989Z,80.63
2018-08-25T11:50:58.106Z,39.23
2018-08-25T11:53:44.184Z,22.60
2018-08-25T11:56:23.976Z,37.30
2018-08-25T11:59:02.547Z,84.20
2018-08-25T12:01:44.572Z,78.10
2018-08-25T12:04:13.108Z,63.97
2018-08-25T12:06:41.997Z,86.57
2018-08-25T12:09:12.172Z,132.37
2018-08-25T12:11:40.907Z,218.93
2018-08-25T12:14:09.450Z,200.40
2018-08-25T12:16:38.068Z,181.63
2018-08-25T12:19:06.677Z,153.33
2018-08-25T12:21:35.176Z,148.83
2018-08-25T12:24:03.755Z,112.60
2018-08-25T12:26:32.339Z,100.70
2018-08-25T12:29:00.876Z,164.33
2018-08-25T12:31:29.414Z,207.93
2018-08-25T12:33:57.936Z,281.63
2018-08-25T12:36:28.022Z,360.40
2018-08-25T12:38:56.568Z,408.90
2018-08-25T12:41:25.086Z,396.93
2018-08-25T12:43:53.829Z,333.87
2018-08-25T12:46:22.387Z,230.57
2018-08-25T12:48:51.277Z,200.83
2018-08-25T12:51:20.233Z,244.77
2018-08-25T12:53:50.681Z,195.50
2018-08-25T12:56:19.619Z,170.83
2018-08-25T12:58:48.179Z,143.77
2018-08-25T13:01:18.273Z,188.57
2018-08-25T13:03:49.329Z,217.83
2018-08-25T13:06:20.503Z,239.83
2018-08-25T13:08:50.696Z,181.37
2018-08-25T13:11:20.496Z,205.10
2018-08-25T13:13:50.004Z,197.87
2018-08-25T13:16:19.853Z,115.87
2018-08-25T13:21:14.345Z,123.93
2018-08-25T13:23:44.084Z,119.47
2018-08-25T13:26:14.978Z,158.07
2018-08-25T13:28:44.268Z,162.57
2018-08-25T13:31:15.006Z,141.30
2018-08-25T13:33:46.817Z,139.80
2018-08-25T13:36:17.618Z,124.40
2018-08-25T13:38:46.565Z,115.90
2018-08-25T13:41:15.514Z,127.03
2018-08-25T13:43:44.771Z,109.77
2018-08-25T13:46:13.642Z,109.23
2018-08-25T13:48:43.284Z,128.17
2018-08-25T13:51:13.761Z,124.73
2018-08-25T13:53:42.314Z,110.00
2018-08-25T13:56:10.946Z,103.23
2018-08-25T13:58:39.614Z,96.90
2018-08-25T14:01:08.397Z,94.70
2018-08-25T14:03:36.965Z,85.13
2018-08-25T14:06:05.478Z,190.07
2018-08-25T14:08:34.043Z,208.20
2018-08-25T14:11:03.384Z,196.03
2018-08-25T14:13:31.912Z,169.00
2018-08-25T14:16:00.528Z,100.90
2018-08-25T14:18:29.125Z,156.23
2018-08-25T14:20:57.942Z,200.83
2018-08-25T14:23:26.612Z,188.43
2018-08-25T14:25:55.377Z,108.20
2018-08-25T14:28:23.958Z,62.77
2018-08-25T14:30:52.492Z,72.63
2018-08-25T14:33:21.185Z,105.90
2018-08-25T14:35:50.279Z,48.40
2018-08-25T14:38:18.911Z,81.97
2018-08-25T14:40:47.424Z,119.90
2018-08-25T14:43:17.466Z,134.23
2018-08-25T14:45:46.072Z,163.73
2018-08-25T14:48:15.405Z,170.13
2018-08-25T14:50:44.106Z,151.90
2018-08-25T14:53:26.604Z,173.23
2018-08-25T14:55:58.961Z,149.77
2018-08-25T15:01:25.569Z,165.83
2018-08-25T15:04:00.004Z,130.33
2018-08-25T15:06:37.527Z,148.23
2018-08-25T15:09:16.017Z,145.33
2018-08-25T15:14:26.706Z,180.70
2018-08-25T15:17:03.375Z,175.27
2018-08-25T15:19:37.191Z,186.10
2018-08-25T15:22:17.274Z,146.10
2018-08-25T15:24:53.278Z,98.87
2018-08-25T15:27:28.525Z,95.73
2018-08-25T15:30:01.782Z,98.37
2018-08-25T15:32:34.918Z,89.20
2018-08-25T15:35:06.167Z,75.70
2018-08-25T15:37:38.143Z,95.80
2018-08-25T15:40:11.503Z,111.37
2018-08-25T15:42:43.221Z,253.10
2018-08-25T15:45:14.822Z,204.10
2018-08-25T15:47:45.964Z,133.87
2018-08-25T15:50:14.942Z,37.50
2018-08-25T15:52:43.488Z,31.50
2018-08-25T15:55:12.769Z,23.63
2018-08-25T15:57:41.746Z,33.23
2018-08-25T16:00:11.202Z,49.77
2018-08-25T16:02:40.185Z,39.27
2018-08-25T16:05:08.782Z,40.87
2018-08-25T16:07:37.683Z,50.60
2018-08-25T16:10:06.923Z,44.97
2018-08-25T16:12:35.790Z,46.40
2018-08-25T16:15:04.403Z,52.30
2018-08-25T16:17:32.922Z,65.03
2018-08-25T16:20:01.600Z,62.70
2018-08-25T16:22:30.162Z,61.20
2018-08-25T16:24:58.937Z,55.70
2018-08-25T16:27:27.681Z,49.63
2018-08-25T16:29:56.329Z,55.20
2018-08-25T16:32:24.877Z,48.87
2018-08-25T16:34:53.444Z,49.57
2018-08-25T16:37:21.976Z,65.90
2018-08-25T16:39:50.469Z,81.07
2018-08-25T16:42:19.013Z,82.93
2018-08-25T16:44:47.523Z,92.77
2018-08-25T16:47:16.061Z,103.37
2018-08-25T16:49:44.606Z,102.20
2018-08-25T16:52:13.155Z,109.07
2018-08-25T16:54:42.119Z,137.17
2018-08-25T16:57:15.151Z,123.10
2018-08-25T16:59:43.685Z,101.80
2018-08-25T17:02:12.344Z,81.73
2018-08-25T17:04:40.781Z,45.50
2018-08-25T17:07:09.331Z,49.47
2018-08-25T17:09:37.863Z,39.83
2018-08-25T17:12:06.562Z,41.57
2018-08-25T17:14:35.133Z,43.83
2018-08-25T17:17:05.198Z,50.73
2018-08-25T17:19:33.760Z,50.07
2018-08-25T17:22:05.987Z,65.57
2018-08-25T17:24:34.592Z,84.10
2018-08-25T17:27:03.135Z,77.10
2018-08-25T17:29:31.679Z,77.90
2018-08-25T17:32:00.257Z,70.87
2018-08-25T17:34:29.381Z,71.83
2018-08-25T17:36:58.144Z,83.23
2018-08-25T17:39:26.656Z,95.97
2018-08-25T17:41:55.232Z,93.63
2018-08-25T17:44:23.838Z,89.60
2018-08-25T17:46:52.449Z,100.37
2018-08-25T17:49:21.008Z,96.90
2018-08-25T17:51:49.590Z,104.03
2018-08-25T17:54:18.118Z,121.80
2018-08-25T17:56:46.719Z,131.53
2018-08-25T17:59:16.098Z,154.63
2018-08-25T18:01:44.719Z,190.63
2018-08-25T18:04:13.270Z,362.00
2018-08-25T18:06:41.860Z,161.90
2018-08-25T18:09:10.438Z,182.80
2018-08-25T18:11:38.971Z,142.87
2018-08-25T18:14:07.561Z,146.57
2018-08-25T18:16:36.098Z,151.20
2018-08-25T18:19:05.159Z,178.57
2018-08-25T18:21:33.730Z,180.53
2018-08-25T18:24:02.307Z,171.83
2018-08-25T18:26:30.838Z,184.83
2018-08-25T18:28:59.423Z,186.67
2018-08-25T18:31:27.944Z,185.30
2018-08-25T18:33:57.717Z,180.93
2018-08-25T18:36:26.277Z,173.10
2018-08-25T18:38:54.837Z,184.40
2018-08-25T18:41:23.351Z,180.50
2018-08-25T18:43:51.941Z,173.17
2018-08-25T18:46:20.517Z,174.13
2018-08-25T18:48:49.038Z,165.93
2018-08-25T18:51:17.597Z,180.77
2018-08-25T18:53:46.125Z,142.73
2018-08-25T18:56:14.680Z,132.07
2018-08-25T18:58:43.234Z,125.90
2018-08-25T19:01:11.798Z,213.70
2018-08-25T19:03:40.400Z,299.70
2018-08-25T19:06:09.029Z,318.77
2018-08-25T19:08:37.643Z,276.27
2018-08-25T19:11:06.160Z,255.93
2018-08-25T19:13:34.738Z,230.53
2018-08-25T19:16:03.287Z,201.60
2018-08-25T19:18:31.846Z,169.47
2018-08-25T19:21:00.396Z,180.63
2018-08-25T19:23:28.888Z,172.70
2018-08-25T19:25:57.435Z,181.17
2018-08-25T19:28:25.975Z,168.50
2018-08-25T19:30:54.517Z,159.97
2018-08-25T19:33:23.085Z,171.37
2018-08-25T19:35:51.588Z,159.77
2018-08-25T19:38:20.120Z,175.50
2018-08-25T19:40:48.841Z,216.67
2018-08-25T19:43:17.437Z,129.67
2018-08-25T19:45:45.951Z,148.57
2018-08-25T19:48:14.548Z,207.07
2018-08-25T19:50:43.096Z,268.33
2018-08-25T19:53:11.832Z,282.50
2018-08-25T19:55:40.339Z,285.73
2018-08-25T19:58:08.890Z,293.53
2018-08-25T20:00:37.469Z,293.20
2018-08-25T20:03:06.102Z,298.23
2018-08-25T20:05:34.883Z,318.47
2018-08-25T20:08:03.217Z,313.63
2018-08-25T20:10:31.801Z,323.10
2018-08-25T20:13:00.467Z,313.70
2018-08-25T20:15:29.023Z,296.57
2018-08-25T20:17:57.629Z,234.37
2018-08-25T20:20:26.251Z,167.87
2018-08-25T20:22:54.760Z,171.13
2018-08-25T20:25:23.327Z,202.17
2018-08-25T20:27:51.929Z,225.57
2018-08-25T20:30:20.548Z,272.07
2018-08-25T20:32:49.056Z,279.27
2018-08-25T20:35:17.589Z,295.13
2018-08-25T20:37:46.117Z,310.40
2018-08-25T20:40:14.761Z,272.40
2018-08-25T20:42:43.276Z,295.93
2018-08-25T20:45:11.836Z,324.97
2018-08-25T20:47:40.428Z,313.97
2018-08-25T20:50:09.000Z,283.20
2018-08-25T20:52:37.640Z,219.30
2018-08-25T20:55:06.468Z,203.10
2018-08-25T20:57:35.188Z,197.77
2018-08-25T21:00:04.103Z,190.40
2018-08-25T21:02:32.663Z,184.17
2018-08-25T21:05:01.216Z,182.43
2018-08-25T21:07:29.849Z,229.07
2018-08-25T21:09:58.404Z,275.00
2018-08-25T21:12:26.920Z,325.90
2018-08-25T21:14:55.460Z,324.63
2018-08-25T21:17:23.980Z,312.73
2018-08-25T21:19:52.517Z,256.73
2018-08-25T21:22:21.099Z,190.67
2018-08-25T21:24:56.208Z,223.07
2018-08-25T21:27:24.714Z,275.70
2018-08-25T21:29:53.305Z,288.57
2018-08-25T21:32:21.855Z,266.60
2018-08-25T21:34:50.355Z,232.00
2018-08-25T21:37:18.946Z,211.07
2018-08-25T21:39:47.500Z,186.27
2018-08-25T21:42:16.075Z,183.97
2018-08-25T21:44:45.150Z,177.70
2018-08-25T21:47:13.663Z,182.13
2018-08-25T21:49:42.419Z,190.10
2018-08-25T21:52:11.922Z,204.10
2018-08-25T21:54:40.725Z,215.57
2018-08-25T21:57:09.288Z,225.47
2018-08-25T21:59:38.973Z,225.97
2018-08-25T22:02:07.880Z,217.47
2018-08-25T22:04:36.380Z,234.03
2018-08-25T22:07:05.024Z,224.40
2018-08-25T22:09:33.746Z,233.50
2018-08-25T22:12:02.291Z,225.27
2018-08-25T22:14:30.860Z,186.73
2018-08-25T22:17:00.580Z,156.97
2018-08-25T22:19:29.304Z,249.40
2018-08-25T22:21:59.442Z,299.37
2018-08-25T22:24:28.000Z,239.90
2018-08-25T22:26:56.555Z,205.67
2018-08-25T22:29:25.064Z,223.97
2018-08-25T22:31:59.904Z,199.10
2018-08-25T22:34:29.682Z,205.27
2018-08-25T22:37:00.203Z,194.03
2018-08-25T22:39:30.444Z,191.87
2018-08-25T22:41:59.012Z,179.70
2018-08-25T22:44:27.585Z,179.73
2018-08-25T22:46:56.099Z,161.20
2018-08-25T22:49:24.664Z,158.53
2018-08-25T22:51:53.218Z,176.40
2018-08-25T22:54:21.750Z,223.87
2018-08-25T22:56:50.719Z,273.77
2018-08-25T22:59:19.630Z,293.03
2018-08-25T23:01:48.175Z,269.80
2018-08-25T23:04:16.817Z,278.30
2018-08-25T23:06:45.459Z,202.20
2018-08-25T23:09:14.033Z,220.83
2018-08-25T23:11:42.674Z,229.07
2018-08-25T23:14:11.624Z,205.30
2018-08-25T23:16:40.153Z,177.70
2018-08-25T23:19:08.940Z,141.10
2018-08-25T23:21:37.499Z,107.93
2018-08-25T23:24:06.256Z,105.37
2018-08-25T23:26:34.776Z,120.57
2018-08-25T23:29:03.370Z,126.63
2018-08-25T23:31:31.872Z,140.30
2018-08-25T23:34:00.543Z,172.43
2018-08-25T23:36:29.080Z,193.87
2018-08-25T23:38:57.592Z,177.77
2018-08-25T23:41:26.140Z,192.23
2018-08-25T23:43:54.692Z,202.80
2018-08-25T23:46:23.273Z,213.50
2018-08-25T23:48:51.756Z,262.50
2018-08-25T23:51:20.262Z,324.87
2018-08-25T23:53:48.800Z,299.57
2018-08-25T23:56:17.338Z,318.43
2018-08-25T23:58:45.840Z,319.90
